Time;durP1;ratioP1;P1;durP2;ratioP2;P2;SDS_P1;SDS_P2;PMS_P1;PMS_P2;Temp;Humidity;BMP_temperature;BMP_pressure;BME280_temperature;BME280_humidity;BME280_pressure;Samples;Min_cycle;Max_cycle;Signal;HPM_P1;HPM_P2
2024/01/01 00:00:46;;;;;;;253.68;129.52;;;;;;;5.51;100.00;99600.19;5071063;28;20049;-43
2024/01/01 00:03:19;;;;;;;253.52;129.40;;;;;;;5.63;100.00;99604.00;5067677;28;20493;-43
2024/01/01 00:05:48;;;;;;;258.70;130.60;;;;;;;5.73;100.00;99606.09;5051972;28;20126;-44
2024/01/01 00:08:17;;;;;;;263.13;133.93;;;;;;;5.80;100.00;99606.66;5066158;28;20044;-43
2024/01/01 00:10:47;;;;;;;264.85;137.85;;;;;;;5.83;100.00;99601.22;5071225;28;20055;-43
2024/01/01 00:13:16;;;;;;;264.23;134.60;;;;;;;5.85;100.00;99593.19;5068705;28;20052;-44
2024/01/01 00:15:45;;;;;;;253.65;133.77;;;;;;;5.94;100.00;99592.75;5072062;28;20037;-42
2024/01/01 00:18:14;;;;;;;257.77;135.18;;;;;;;6.06;100.00;99593.88;5071272;28;20084;-43
2024/01/01 00:20:43;;;;;;;261.90;135.77;;;;;;;6.05;100.00;99593.03;5071074;28;20037;-44
2024/01/01 00:23:11;;;;;;;261.27;132.57;;;;;;;6.05;100.00;99589.53;5070289;28;20086;-43
2024/01/01 00:25:40;;;;;;;264.50;136.75;;;;;;;6.08;100.00;99587.59;5071792;28;20080;-44
2024/01/01 00:28:09;;;;;;;264.27;137.35;;;;;;;6.13;100.00;99585.56;5071137;28;20036;-43
2024/01/01 00:30:37;;;;;;;243.75;131.00;;;;;;;6.05;100.00;99582.44;5070500;28;20049;-44
2024/01/01 00:33:07;;;;;;;249.60;131.90;;;;;;;6.06;100.00;99596.53;5068406;28;20135;-43
2024/01/01 00:35:35;;;;;;;258.08;137.20;;;;;;;6.02;100.00;99593.22;5070478;28;20277;-42
2024/01/01 00:38:04;;;;;;;261.15;135.60;;;;;;;6.10;100.00;99590.16;5070985;28;20047;-43
2024/01/01 00:40:33;;;;;;;262.23;133.15;;;;;;;6.15;100.00;99581.03;5070974;28;20045;-43
2024/01/01 00:43:01;;;;;;;263.08;135.23;;;;;;;6.16;100.00;99574.78;5068360;28;20052;-44
2024/01/01 00:45:30;;;;;;;255.45;129.23;;;;;;;6.11;100.00;99579.50;5070296;28;20044;-44
2024/01/01 00:48:11;;;;;;;248.02;128.32;;;;;;;6.10;100.00;99572.50;5072502;28;20502;-43
2024/01/01 00:50:40;;;;;;;244.70;130.07;;;;;;;6.19;100.00;99572.00;5074122;28;20071;-43
2024/01/01 00:53:09;;;;;;;237.13;127.43;;;;;;;6.24;100.00;99569.94;5067325;28;20049;-48
2024/01/01 00:55:37;;;;;;;245.40;127.65;;;;;;;6.33;100.00;99558.00;5070064;28;20047;-42
2024/01/01 00:58:06;;;;;;;238.82;123.57;;;;;;;6.36;100.00;99570.22;5070373;28;20734;-42
2024/01/01 01:00:36;;;;;;;224.45;119.53;;;;;;;6.50;100.00;99562.41;5070052;28;20045;-44
2024/01/01 01:03:05;;;;;;;205.50;111.72;;;;;;;6.57;100.00;99566.44;5066536;28;20044;-43
2024/01/01 01:05:35;;;;;;;205.88;110.00;;;;;;;6.66;100.00;99565.06;5069343;28;20045;-44
2024/01/01 01:08:04;;;;;;;168.13;90.70;;;;;;;6.68;100.00;99568.50;5064710;28;20040;-43
2024/01/01 01:10:33;;;;;;;153.88;84.40;;;;;;;6.76;100.00;99553.88;5066517;28;20041;-42
2024/01/01 01:13:01;;;;;;;148.02;82.75;;;;;;;6.91;100.00;99551.31;5066331;28;20131;-42
2024/01/01 01:15:31;;;;;;;140.30;74.47;;;;;;;6.97;100.00;99549.19;5070249;28;20133;-43
2024/01/01 01:17:59;;;;;;;124.10;68.18;;;;;;;7.02;100.00;99541.78;5069851;28;20048;-42
2024/01/01 01:20:28;;;;;;;109.65;61.05;;;;;;;7.00;100.00;99533.09;5070126;28;20049;-42
2024/01/01 01:22:58;;;;;;;102.25;57.85;;;;;;;7.10;100.00;99538.72;5067801;28;20068;-44
2024/01/01 01:25:27;;;;;;;96.53;53.72;;;;;;;7.12;100.00;99542.13;5069744;28;20079;-44
2024/01/01 01:27:55;;;;;;;91.40;51.95;;;;;;;7.13;100.00;99534.09;5069878;28;20408;-43
2024/01/01 01:30:23;;;;;;;88.70;49.53;;;;;;;7.21;100.00;99540.75;5069785;28;20048;-44
2024/01/01 01:32:51;;;;;;;84.30;46.78;;;;;;;7.19;100.00;99532.88;5071605;28;20140;-41
2024/01/01 01:35:20;;;;;;;70.95;41.60;;;;;;;7.15;100.00;99536.66;5075679;28;20101;-47
2024/01/01 01:37:49;;;;;;;77.40;44.03;;;;;;;7.23;100.00;99534.41;5086261;28;20625;-42
2024/01/01 01:40:18;;;;;;;79.22;43.53;;;;;;;7.22;100.00;99538.00;5078447;28;20547;-46
2024/01/01 01:42:47;;;;;;;83.78;47.47;;;;;;;7.20;100.00;99525.78;5058914;28;20091;-43
2024/01/01 01:45:16;;;;;;;72.75;41.08;;;;;;;7.26;100.00;99525.44;5081443;28;20127;-43
2024/01/01 01:47:47;;;;;;;77.32;43.00;;;;;;;7.24;100.00;99525.53;5072066;28;20090;-43
2024/01/01 01:50:17;;;;;;;72.13;40.97;;;;;;;7.33;100.00;99524.97;5072206;28;20052;-43
2024/01/01 01:52:46;;;;;;;66.47;38.45;;;;;;;7.38;100.00;99520.25;5074200;28;20832;-44
2024/01/01 01:55:22;;;;;;;65.82;38.75;;;;;;;7.38;100.00;99525.56;5067793;28;20048;-42
2024/01/01 01:57:51;;;;;;;63.92;37.40;;;;;;;7.42;100.00;99523.56;5052901;28;20048;-43
2024/01/01 02:00:20;;;;;;;59.97;35.90;;;;;;;7.37;100.00;99518.56;5069128;28;20052;-42
2024/01/01 02:02:53;;;;;;;60.55;34.53;;;;;;;7.43;100.00;99514.66;5066843;28;21327;-45
2024/01/01 02:05:21;;;;;;;56.00;32.60;;;;;;;7.50;100.00;99509.88;5069150;28;20082;-44
2024/01/01 02:07:49;;;;;;;50.85;30.23;;;;;;;7.52;100.00;99508.81;5083708;28;20048;-42
2024/01/01 02:10:18;;;;;;;49.70;30.55;;;;;;;7.51;100.00;99507.13;5072626;28;20043;-44
2024/01/01 02:12:46;;;;;;;55.47;30.45;;;;;;;7.42;100.00;99511.16;5075602;28;20044;-43
2024/01/01 02:15:20;;;;;;;50.75;29.90;;;;;;;7.41;100.00;99506.81;5073664;28;20097;-42
2024/01/01 02:17:49;;;;;;;46.67;27.88;;;;;;;7.40;100.00;99510.41;5076541;28;20048;-43
2024/01/01 02:20:17;;;;;;;45.50;27.58;;;;;;;7.43;100.00;99507.59;5078203;28;20477;-45
2024/01/01 02:22:48;;;;;;;48.33;29.20;;;;;;;7.43;100.00;99507.59;5071541;28;20144;-43
2024/01/01 02:25:18;;;;;;;47.13;27.98;;;;;;;7.43;100.00;99494.31;5050918;28;20091;-48
2024/01/01 02:27:46;;;;;;;46.13;27.63;;;;;;;7.38;100.00;99495.53;5052233;28;20056;-44
2024/01/01 02:30:15;;;;;;;44.83;27.17;;;;;;;7.45;100.00;99491.56;5073379;28;20036;-43
2024/01/01 02:32:44;;;;;;;48.63;28.02;;;;;;;7.47;100.00;99485.22;5079396;28;20048;-43
2024/01/01 02:35:12;;;;;;;47.30;28.45;;;;;;;7.40;100.00;99480.38;5074852;28;20075;-43
2024/01/01 02:37:41;;;;;;;43.92;26.65;;;;;;;7.53;100.00;99472.53;5073249;28;20068;-44
2024/01/01 02:40:11;;;;;;;49.70;28.08;;;;;;;7.41;100.00;99468.81;5081518;28;20485;-45
2024/01/01 02:42:41;;;;;;;44.30;27.83;;;;;;;7.34;100.00;99467.50;5087682;28;20057;-43
2024/01/01 02:45:10;;;;;;;44.83;27.23;;;;;;;7.36;100.00;99461.13;5071719;28;20519;-43
2024/01/01 02:47:39;;;;;;;48.47;27.02;;;;;;;7.36;100.00;99460.28;5070866;28;20568;-43
2024/01/01 02:50:07;;;;;;;44.90;26.25;;;;;;;7.47;100.00;99455.19;5072499;28;20060;-43
2024/01/01 02:52:36;;;;;;;44.72;26.58;;;;;;;7.34;100.00;99452.41;5070463;28;20056;-45
2024/01/01 02:55:05;;;;;;;43.78;26.55;;;;;;;7.38;100.00;99448.63;5071539;28;20083;-43
2024/01/01 02:57:33;;;;;;;46.55;25.95;;;;;;;7.39;100.00;99455.63;5091052;28;20086;-42
2024/01/01 03:00:03;;;;;;;45.78;27.23;;;;;;;7.33;100.00;99442.72;5092547;28;20044;-44
2024/01/01 03:02:32;;;;;;;47.40;27.23;;;;;;;7.46;100.00;99446.38;5088964;28;20124;-45
2024/01/01 03:05:00;;;;;;;42.10;26.50;;;;;;;7.47;100.00;99449.88;5070996;28;20090;-44
2024/01/01 03:07:29;;;;;;;45.03;26.08;;;;;;;7.42;100.00;99447.47;5072105;28;20373;-44
2024/01/01 03:09:57;;;;;;;44.80;26.33;;;;;;;7.27;100.00;99434.31;5072220;28;20044;-43
2024/01/01 03:12:25;;;;;;;47.25;27.88;;;;;;;7.23;100.00;99444.22;5090094;28;20127;-45
2024/01/01 03:14:54;;;;;;;45.53;27.17;;;;;;;7.26;100.00;99444.06;5075087;28;20110;-43
2024/01/01 03:17:23;;;;;;;46.38;28.02;;;;;;;7.23;100.00;99438.91;5075222;28;20043;-44
2024/01/01 03:19:51;;;;;;;46.67;27.02;;;;;;;7.27;100.00;99435.16;5074988;28;20045;-43
2024/01/01 03:22:20;;;;;;;45.53;27.13;;;;;;;7.29;100.00;99433.25;5085730;28;20055;-45
2024/01/01 03:24:49;;;;;;;42.42;26.33;;;;;;;7.36;100.00;99429.31;5073302;28;20084;-44
2024/01/01 03:27:17;;;;;;;44.08;26.95;;;;;;;7.44;100.00;99426.19;5073280;28;20391;-45
2024/01/01 03:29:46;;;;;;;45.67;25.85;;;;;;;7.47;100.00;99437.47;5080505;28;20071;-45
2024/01/01 03:32:14;;;;;;;44.40;26.75;;;;;;;7.54;100.00;99439.75;5092772;28;20036;-44
2024/01/01 03:34:44;;;;;;;47.08;28.30;;;;;;;7.56;100.00;99440.50;5093138;28;20143;-43
2024/01/01 03:37:13;;;;;;;44.80;27.55;;;;;;;7.62;100.00;99445.44;5073670;28;20132;-44
2024/01/01 03:39:41;;;;;;;45.78;27.13;;;;;;;7.62;100.00;99450.72;5073303;28;20135;-43
2024/01/01 03:42:09;;;;;;;43.75;27.27;;;;;;;7.58;100.00;99450.06;5077358;28;20402;-44
2024/01/01 03:44:37;;;;;;;47.88;27.63;;;;;;;7.58;100.00;99441.25;5072864;28;20040;-43
2024/01/01 03:47:06;;;;;;;46.28;28.25;;;;;;;7.53;100.00;99441.56;5087701;28;20126;-44
2024/01/01 03:49:34;;;;;;;45.65;28.45;;;;;;;7.51;100.00;99440.78;5093248;28;20040;-43
2024/01/01 03:52:04;;;;;;;44.33;26.95;;;;;;;7.53;100.00;99432.72;5083475;28;20051;-43
2024/01/01 03:54:32;;;;;;;47.38;28.35;;;;;;;7.58;100.00;99425.34;5072875;28;20040;-45
2024/01/01 03:57:00;;;;;;;48.15;28.48;;;;;;;7.47;100.00;99418.88;5072660;28;20052;-45
2024/01/01 03:59:29;;;;;;;47.10;28.77;;;;;;;7.45;100.00;99415.47;5072487;28;20049;-45
2024/01/01 04:01:57;;;;;;;47.67;28.30;;;;;;;7.43;100.00;99414.72;5072492;28;20044;-45
2024/01/01 04:04:25;;;;;;;46.08;28.33;;;;;;;7.49;100.00;99409.97;5072311;28;20084;-44
2024/01/01 04:06:53;;;;;;;46.22;26.60;;;;;;;7.52;100.00;99407.13;5072666;28;20045;-43
2024/01/01 04:09:23;;;;;;;46.33;28.08;;;;;;;7.52;100.00;99391.22;5071258;28;20041;-43
2024/01/01 04:11:51;;;;;;;47.58;26.80;;;;;;;7.54;100.00;99379.56;5072443;28;20106;-44
2024/01/01 04:14:20;;;;;;;48.50;28.73;;;;;;;7.52;100.00;99383.25;5072291;28;20469;-45
2024/01/01 04:16:48;;;;;;;41.53;26.33;;;;;;;7.56;100.00;99388.28;5072289;28;20060;-45
2024/01/01 04:19:17;;;;;;;42.58;26.83;;;;;;;7.56;100.00;99384.78;5087595;28;20055;-45
2024/01/01 04:21:45;;;;;;;46.88;27.77;;;;;;;7.58;100.00;99393.50;5091801;28;20153;-44
2024/01/01 04:24:13;;;;;;;44.80;26.33;;;;;;;7.58;100.00;99390.84;5072030;28;20090;-44
2024/01/01 04:26:43;;;;;;;49.42;27.42;;;;;;;7.57;100.00;99394.44;5072033;28;20053;-44
2024/01/01 04:29:12;;;;;;;44.50;27.10;;;;;;;7.53;100.00;99395.56;5085514;28;20043;-43
2024/01/01 04:31:40;;;;;;;40.17;24.42;;;;;;;7.64;100.00;99390.47;5092390;28;20048;-44
2024/01/01 04:34:09;;;;;;;41.95;25.58;;;;;;;7.70;100.00;99400.69;5091712;28;20127;-44
2024/01/01 04:36:39;;;;;;;37.17;22.27;;;;;;;7.71;100.00;99386.47;5071919;28;20048;-43
2024/01/01 04:39:08;;;;;;;38.95;23.20;;;;;;;7.73;100.00;99389.91;5071840;28;20103;-44
2024/01/01 04:41:37;;;;;;;34.78;20.50;;;;;;;7.75;100.00;99394.16;5071723;28;20044;-44
2024/01/01 04:44:07;;;;;;;32.97;18.90;;;;;;;7.76;100.00;99397.66;5071779;28;20048;-44
2024/01/01 04:46:35;;;;;;;31.27;16.98;;;;;;;7.76;100.00;99410.94;5071672;28;20044;-44
2024/01/01 04:49:04;;;;;;;30.38;16.42;;;;;;;7.77;100.00;99396.72;5071342;28;20036;-44
2024/01/01 04:51:32;;;;;;;23.95;14.40;;;;;;;7.58;100.00;99422.69;5071760;28;20067;-43
2024/01/01 04:54:00;;;;;;;22.73;13.77;;;;;;;7.58;100.00;99433.31;5074602;28;20076;-44
2024/01/01 04:56:28;;;;;;;23.40;12.88;;;;;;;7.60;100.00;99432.25;5080449;28;20040;-43
2024/01/01 04:58:57;;;;;;;23.40;12.85;;;;;;;7.46;100.00;99435.75;5076382;28;20126;-44
2024/01/01 05:01:27;;;;;;;22.02;12.93;;;;;;;7.43;100.00;99441.25;5071699;28;20048;-44
2024/01/01 05:03:55;;;;;;;24.23;13.63;;;;;;;7.43;100.00;99440.38;5071413;28;20052;-43
2024/01/01 05:06:23;;;;;;;22.30;13.52;;;;;;;7.26;100.00;99444.06;5089948;28;20059;-43
2024/01/01 05:08:52;;;;;;;26.13;14.38;;;;;;;7.26;100.00;99438.75;5091542;28;20063;-44
2024/01/01 05:11:20;;;;;;;25.25;14.55;;;;;;;7.17;100.00;99444.59;5091577;28;20507;-45
2024/01/01 05:13:48;;;;;;;29.40;16.10;;;;;;;7.07;100.00;99433.69;5091760;28;20043;-45
2024/01/01 05:16:17;;;;;;;27.00;14.65;;;;;;;7.09;100.00;99436.25;5091334;28;20077;-44
2024/01/01 05:18:46;;;;;;;30.50;16.10;;;;;;;7.05;100.00;99440.03;5091415;28;20523;-45
2024/01/01 05:21:15;;;;;;;30.52;16.38;;;;;;;7.06;100.00;99445.25;5091299;28;20139;-44
2024/01/01 05:23:43;;;;;;;29.40;15.95;;;;;;;6.98;100.00;99450.13;5091635;28;20105;-44
2024/01/01 05:26:12;;;;;;;29.15;14.93;;;;;;;6.94;100.00;99450.38;5078085;28;20055;-44
2024/01/01 05:28:40;;;;;;;28.05;15.98;;;;;;;6.89;100.00;99440.06;5090364;28;20048;-44
2024/01/01 05:31:09;;;;;;;29.17;16.00;;;;;;;6.88;100.00;99439.19;5091297;28;20493;-44
2024/01/01 05:33:37;;;;;;;27.15;15.70;;;;;;;6.82;100.00;99428.94;5071810;28;20465;-44
2024/01/01 05:36:13;;;;;;;28.35;16.08;;;;;;;6.48;100.00;99430.03;5071350;28;20052;-43
2024/01/01 05:38:42;;;;;;;27.55;15.07;;;;;;;6.44;100.00;99446.16;5071190;28;20053;-43
2024/01/01 05:41:11;;;;;;;29.73;16.17;;;;;;;6.64;100.00;99445.91;5071284;28;20052;-43
2024/01/01 05:43:40;;;;;;;30.15;16.20;;;;;;;6.61;100.00;99435.47;5079608;28;20130;-43
2024/01/01 05:46:08;;;;;;;27.80;15.57;;;;;;;6.53;100.00;99432.41;5091251;28;20124;-47
2024/01/01 05:48:37;;;;;;;30.08;15.98;;;;;;;6.52;100.00;99426.25;5091585;28;20047;-44
2024/01/01 05:51:09;;;;;;;29.45;15.68;;;;;;;6.36;100.00;99425.41;5091580;28;20498;-42
2024/01/01 05:53:39;;;;;;;32.13;16.40;;;;;;;6.15;100.00;99416.00;5091712;28;20040;-42
2024/01/01 05:56:08;;;;;;;33.78;17.50;;;;;;;6.08;100.00;99420.81;5091397;28;20102;-43
2024/01/01 05:58:36;;;;;;;29.98;16.33;;;;;;;5.93;100.00;99418.97;5091245;28;20044;-44
2024/01/01 06:01:04;;;;;;;31.08;16.13;;;;;;;5.77;100.00;99428.63;5090639;28;20127;-43
2024/01/01 06:03:33;;;;;;;27.58;15.52;;;;;;;5.85;100.00;99429.09;5080899;28;20052;-42
2024/01/01 06:06:02;;;;;;;32.70;16.38;;;;;;;5.96;100.00;99421.44;5095084;28;20044;-44
2024/01/01 06:08:30;;;;;;;31.92;16.70;;;;;;;6.06;100.00;99417.34;5094978;28;20044;-46
2024/01/01 06:11:03;;;;;;;33.13;16.73;;;;;;;5.90;100.00;99421.78;5094905;28;20051;-43
2024/01/01 06:13:31;;;;;;;32.67;17.48;;;;;;;5.82;100.00;99416.88;5086665;28;20363;-42
2024/01/01 06:15:59;;;;;;;35.33;17.75;;;;;;;5.84;100.00;99411.50;5074694;28;20055;-43
2024/01/01 06:18:28;;;;;;;31.90;17.02;;;;;;;5.79;100.00;99413.53;5074276;28;20052;-44
2024/01/01 06:20:56;;;;;;;35.13;16.98;;;;;;;5.53;100.00;99410.50;5074628;28;20045;-43
2024/01/01 06:23:24;;;;;;;37.55;19.17;;;;;;;5.41;100.00;99419.09;5074505;28;20055;-44
2024/01/01 06:25:53;;;;;;;34.70;18.17;;;;;;;5.46;100.00;99419.69;5074264;28;20049;-42
2024/01/01 06:28:23;;;;;;;34.15;18.15;;;;;;;5.46;100.00;99417.03;5074877;28;20044;-44
2024/01/01 06:30:51;;;;;;;35.47;18.60;;;;;;;5.61;100.00;99420.69;5075213;28;20083;-43
2024/01/01 06:33:19;;;;;;;40.63;19.70;;;;;;;5.39;100.00;99421.78;5079147;28;20040;-43
2024/01/01 06:35:47;;;;;;;35.15;18.73;;;;;;;5.53;100.00;99412.28;5086044;28;20053;-43
2024/01/01 06:38:15;;;;;;;38.00;19.08;;;;;;;5.45;100.00;99402.97;5074361;28;20109;-43
2024/01/01 06:40:44;;;;;;;37.60;19.48;;;;;;;5.40;100.00;99412.06;5074342;28;20135;-43
2024/01/01 06:43:12;;;;;;;41.00;19.58;;;;;;;5.53;100.00;99425.53;5085780;28;20080;-43
2024/01/01 06:45:42;;;;;;;38.75;19.77;;;;;;;5.68;100.00;99432.63;5089478;28;20063;-41
2024/01/01 06:48:11;;;;;;;36.97;19.55;;;;;;;5.72;100.00;99434.19;5079259;28;20497;-43
2024/01/01 06:50:40;;;;;;;38.92;18.33;;;;;;;5.61;100.00;99426.81;5074970;28;20101;-43
2024/01/01 06:53:08;;;;;;;39.97;19.88;;;;;;;5.59;100.00;99433.09;5080589;28;20132;-43
2024/01/01 06:55:37;;;;;;;37.55;19.77;;;;;;;5.61;100.00;99437.41;5085635;28;20128;-43
2024/01/01 06:58:05;;;;;;;38.55;20.30;;;;;;;5.74;100.00;99433.16;5074248;28;20046;-44
2024/01/01 07:00:34;;;;;;;40.60;20.08;;;;;;;5.73;100.00;99435.91;5074262;28;20135;-42
2024/01/01 07:03:04;;;;;;;37.90;19.27;;;;;;;5.65;100.00;99436.28;5085015;28;20503;-44
2024/01/01 07:05:33;;;;;;;37.70;19.52;;;;;;;5.45;100.00;99426.75;5094195;28;20048;-43
2024/01/01 07:08:03;;;;;;;37.08;19.52;;;;;;;5.36;100.00;99431.69;5080083;28;20102;-44
2024/01/01 07:10:32;;;;;;;38.40;19.42;;;;;;;5.26;100.00;99435.72;5087860;28;20047;-44
2024/01/01 07:13:00;;;;;;;35.40;18.40;;;;;;;5.41;100.00;99441.09;5093405;28;20097;-43
2024/01/01 07:15:29;;;;;;;35.95;18.30;;;;;;;5.45;100.00;99453.22;5086561;28;20040;-43
2024/01/01 07:18:00;;;;;;;31.80;17.00;;;;;;;5.52;100.00;99456.41;5077907;28;20516;-43
2024/01/01 07:20:32;;;;;;;34.45;16.83;;;;;;;5.54;100.00;99462.47;5079768;28;20045;-45
2024/01/01 07:23:01;;;;;;;33.47;17.38;;;;;;;5.61;100.00;99463.00;5074553;28;20044;-43
2024/01/01 07:25:30;;;;;;;32.13;16.95;;;;;;;5.69;100.00;99472.25;5074302;28;20041;-44
2024/01/01 07:27:58;;;;;;;29.48;15.07;;;;;;;5.73;100.00;99472.94;5078846;28;20048;-45
2024/01/01 07:30:27;;;;;;;25.98;13.82;;;;;;;5.56;100.00;99487.03;5093353;28;20060;-43
2024/01/01 07:32:56;;;;;;;26.30;14.07;;;;;;;5.68;100.00;99486.41;5074473;28;20123;-44
2024/01/01 07:35:25;;;;;;;24.17;12.82;;;;;;;5.72;100.00;99492.41;5073208;28;20057;-43
2024/01/01 07:37:56;;;;;;;27.58;13.48;;;;;;;5.82;100.00;99495.44;5072988;28;20053;-42
2024/01/01 07:40:24;;;;;;;25.65;13.18;;;;;;;5.73;100.00;99510.00;5085681;28;20381;-43
2024/01/01 07:42:52;;;;;;;27.23;13.65;;;;;;;5.83;100.00;99513.88;5093086;28;20043;-43
2024/01/01 07:45:20;;;;;;;23.52;12.30;;;;;;;5.78;100.00;99530.91;5093002;28;20466;-42
2024/01/01 07:47:50;;;;;;;23.27;12.25;;;;;;;5.80;100.00;99532.56;5092878;28;20561;-43
2024/01/01 07:50:18;;;;;;;23.20;12.02;;;;;;;5.88;100.00;99535.63;5093120;28;20133;-43
2024/01/01 07:52:49;;;;;;;21.42;11.50;;;;;;;5.77;100.00;99531.84;5092819;28;20048;-43
2024/01/01 07:55:20;;;;;;;21.17;11.27;;;;;;;5.69;100.00;99530.47;5092897;28;20136;-44
2024/01/01 07:57:49;;;;;;;20.60;10.27;;;;;;;5.71;100.00;99536.53;5092838;28;20044;-43
2024/01/01 08:00:19;;;;;;;17.63;10.07;;;;;;;5.78;100.00;99534.41;5082725;28;20044;-43
2024/01/01 08:02:47;;;;;;;17.83;9.65;;;;;;;5.84;100.00;99549.13;5072366;28;20150;-43
2024/01/01 08:05:16;;;;;;;17.70;8.57;;;;;;;5.79;100.00;99548.50;5072379;28;20053;-42
2024/01/01 08:07:47;;;;;;;13.80;7.07;;;;;;;5.82;100.00;99561.59;5071680;28;20040;-43
2024/01/01 08:10:17;;;;;;;11.73;7.07;;;;;;;5.89;100.00;99557.69;5083479;28;20134;-42
2024/01/01 08:12:46;;;;;;;12.63;6.55;;;;;;;5.92;100.00;99557.56;5092373;28;20496;-43
2024/01/01 08:15:15;;;;;;;10.88;5.93;;;;;;;5.82;100.00;99562.44;5092390;28;20047;-45
2024/01/01 08:17:43;;;;;;;8.90;5.20;;;;;;;5.75;100.00;99550.44;5091499;28;20048;-42
2024/01/01 08:20:12;;;;;;;9.68;5.18;;;;;;;5.68;100.00;99563.13;5076231;28;20131;-42
2024/01/01 08:22:40;;;;;;;11.02;5.53;;;;;;;5.72;100.00;99567.34;5071501;28;20048;-43
2024/01/01 08:25:09;;;;;;;10.05;5.55;;;;;;;5.80;100.00;99566.97;5072019;28;20109;-43
2024/01/01 08:27:37;;;;;;;9.35;5.15;;;;;;;5.86;100.00;99573.72;5072112;28;20144;-43
2024/01/01 08:30:08;;;;;;;9.13;4.68;;;;;;;5.92;100.00;99568.16;5080964;28;20113;-43
2024/01/01 08:32:37;;;;;;;7.55;4.43;;;;;;;5.94;100.00;99567.13;5087595;28;20064;-46
2024/01/01 08:35:06;;;;;;;7.60;3.53;;;;;;;5.94;100.00;99563.63;5077961;28;20462;-43
2024/01/01 08:37:34;;;;;;;7.38;3.65;;;;;;;5.94;100.00;99564.47;5091999;28;20451;-44
2024/01/01 08:40:03;;;;;;;5.55;2.85;;;;;;;5.77;100.00;99550.38;5089289;28;20043;-44
2024/01/01 08:42:31;;;;;;;4.57;2.30;;;;;;;5.62;100.00;99552.88;5081036;28;20486;-44
2024/01/01 08:44:59;;;;;;;3.50;2.10;;;;;;;5.66;100.00;99551.78;5051649;28;20513;-43
2024/01/01 08:47:29;;;;;;;5.15;2.30;;;;;;;5.81;100.00;99549.28;5054684;28;20052;-44
2024/01/01 08:49:57;;;;;;;4.30;2.10;;;;;;;5.90;100.00;99559.41;5075777;28;20040;-42
2024/01/01 08:52:26;;;;;;;4.03;1.80;;;;;;;5.86;100.00;99557.84;5076640;28;20446;-43
2024/01/01 08:54:54;;;;;;;4.15;1.80;;;;;;;5.84;100.00;99555.28;5081668;28;20052;-43
2024/01/01 08:57:23;;;;;;;3.30;1.85;;;;;;;5.86;100.00;99557.84;5077274;28;20040;-43
2024/01/01 08:59:51;;;;;;;4.68;1.95;;;;;;;5.85;100.00;99558.78;5075158;28;20047;-43
2024/01/01 09:02:19;;;;;;;4.10;2.22;;;;;;;5.94;100.00;99561.84;5075009;28;20045;-44
2024/01/01 09:04:49;;;;;;;4.15;1.73;;;;;;;5.90;100.00;99585.88;5074139;28;20132;-44
2024/01/01 09:07:18;;;;;;;4.80;2.15;;;;;;;5.95;100.00;99600.59;5077620;28;20032;-44
2024/01/01 09:09:46;;;;;;;5.63;2.35;;;;;;;5.92;100.00;99589.31;5076340;28;20503;-42
2024/01/01 09:12:15;;;;;;;6.63;2.67;;;;;;;5.96;100.00;99589.06;5078175;28;20036;-43
2024/01/01 09:14:43;;;;;;;5.75;2.40;;;;;;;5.86;100.00;99584.31;5075458;28;20040;-42
2024/01/01 09:17:11;;;;;;;4.95;2.30;;;;;;;5.80;100.00;99584.63;5075201;28;20059;-43
2024/01/01 09:19:40;;;;;;;5.03;2.40;;;;;;;5.85;100.00;99583.44;5078164;28;20459;-42
2024/01/01 09:22:09;;;;;;;6.32;2.50;;;;;;;5.64;100.00;99566.88;5070291;28;20051;-42
2024/01/01 09:24:38;;;;;;;6.25;2.50;;;;;;;5.80;100.00;99579.34;5074236;28;20131;-42
2024/01/01 09:27:06;;;;;;;6.00;2.97;;;;;;;5.89;100.00;99584.16;5076449;28;20040;-42
2024/01/01 09:29:35;;;;;;;6.05;2.30;;;;;;;5.99;100.00;99580.13;5076314;28;20395;-42
2024/01/01 09:32:05;;;;;;;5.93;2.30;;;;;;;6.03;100.00;99577.25;5077004;28;20044;-45
2024/01/01 09:34:33;;;;;;;4.88;2.13;;;;;;;5.88;100.00;99567.41;5079348;28;20078;-42
2024/01/01 09:37:01;;;;;;;5.20;2.17;;;;;;;5.75;100.00;99580.41;5081903;28;20048;-43
2024/01/01 09:39:33;;;;;;;4.65;2.40;;;;;;;5.96;100.00;99580.28;5080302;28;20043;-42
2024/01/01 09:42:02;;;;;;;4.85;2.50;;;;;;;5.86;100.00;99585.16;5079748;28;20094;-44
2024/01/01 09:44:31;;;;;;;8.25;2.85;;;;;;;5.81;100.00;99579.25;5080406;28;20040;-43
2024/01/01 09:46:59;;;;;;;6.43;2.60;;;;;;;6.11;100.00;99586.56;5079339;28;20040;-42
2024/01/01 09:49:27;;;;;;;7.43;2.50;;;;;;;6.22;100.00;99581.56;5080157;28;20106;-42
2024/01/01 09:51:57;;;;;;;6.13;2.60;;;;;;;6.23;100.00;99578.84;5082488;28;20504;-46
2024/01/01 09:54:25;;;;;;;5.78;2.85;;;;;;;6.38;100.00;99571.88;5081555;28;20147;-43
2024/01/01 09:56:55;;;;;;;4.85;2.30;;;;;;;6.32;100.00;99573.06;5078675;28;20431;-42
2024/01/01 09:59:36;;;;;;;5.22;2.47;;;;;;;6.30;100.00;99572.28;5074869;28;20084;-43
2024/01/01 10:02:07;;;;;;;5.45;2.08;;;;;;;6.26;100.00;99580.47;5074892;28;20080;-44
2024/01/01 10:04:36;;;;;;;3.95;1.80;;;;;;;6.31;100.00;99589.88;5094750;28;20074;-44
2024/01/01 10:07:04;;;;;;;4.60;2.47;;;;;;;6.25;100.00;99576.97;5080823;28;20048;-43
2024/01/01 10:09:33;;;;;;;4.95;2.33;;;;;;;6.32;100.00;99578.34;5078142;28;20067;-42
2024/01/01 10:12:10;;;;;;;5.25;2.35;;;;;;;6.31;100.00;99565.19;5077835;28;20509;-43
2024/01/01 10:14:46;;;;;;;4.78;2.20;;;;;;;6.45;100.00;99570.59;5081597;28;20063;-46
2024/01/01 10:17:17;;;;;;;5.18;2.63;;;;;;;6.45;100.00;99582.97;5078933;28;20048;-44
2024/01/01 10:19:51;;;;;;;8.82;2.83;;;;;;;6.54;100.00;99588.63;5079757;28;20161;-44
2024/01/01 10:22:23;;;;;;;5.85;2.30;;;;;;;6.53;100.00;99586.94;5079481;28;20037;-45
2024/01/01 10:24:54;;;;;;;5.78;2.28;;;;;;;6.60;100.00;99582.16;5081433;28;20070;-44
2024/01/01 10:27:24;;;;;;;4.95;2.38;;;;;;;6.62;100.00;99585.56;5079595;28;20467;-45
2024/01/01 10:29:52;;;;;;;5.53;2.50;;;;;;;6.64;100.00;99577.53;5089602;28;20060;-44
2024/01/01 10:32:21;;;;;;;5.63;2.22;;;;;;;6.66;100.00;99588.91;5080919;28;20040;-46
2024/01/01 10:34:50;;;;;;;4.18;2.17;;;;;;;6.73;100.00;99583.19;5081343;28;20101;-46
2024/01/01 10:37:20;;;;;;;5.10;2.42;;;;;;;6.79;100.00;99579.38;5079830;28;20417;-44
2024/01/01 10:39:48;;;;;;;5.50;2.33;;;;;;;6.83;100.00;99578.25;5080662;28;20084;-44
2024/01/01 10:42:17;;;;;;;3.38;1.73;;;;;;;6.82;100.00;99581.84;5080072;28;20149;-44
2024/01/01 10:44:47;;;;;;;4.68;2.10;;;;;;;6.86;100.00;99578.94;5080914;28;20044;-43
2024/01/01 10:47:18;;;;;;;4.93;2.22;;;;;;;7.14;100.00;99577.38;5079622;28;20086;-42
2024/01/01 10:49:55;;;;;;;5.10;2.20;;;;;;;7.30;100.00;99572.91;5082484;28;20054;-44
2024/01/01 10:52:39;;;;;;;5.18;2.08;;;;;;;7.42;100.00;99577.50;5068851;28;20044;-42
2024/01/01 10:55:31;;;;;;;5.00;2.20;;;;;;;7.43;100.00;99573.94;5086531;28;20165;-43
2024/01/01 10:58:29;;;;;;;4.60;2.10;;;;;;;7.44;100.00;99574.78;5075437;28;20124;-45
2024/01/01 11:01:06;;;;;;;6.00;2.35;;;;;;;7.41;100.00;99586.41;5075324;28;20087;-44
2024/01/01 11:03:35;;;;;;;5.65;2.47;;;;;;;7.30;100.00;99580.88;5077780;28;20409;-44
2024/01/01 11:06:24;;;;;;;8.15;2.55;;;;;;;7.40;100.00;99582.03;5094182;28;20576;-43
2024/01/01 11:08:52;;;;;;;5.47;2.63;;;;;;;7.47;100.00;99583.41;5076642;28;20044;-43
2024/01/01 11:11:22;;;;;;;6.78;2.15;;;;;;;7.38;100.00;99570.69;5077649;28;20098;-43
2024/01/01 11:13:55;;;;;;;6.22;2.63;;;;;;;7.36;100.00;99567.25;5079260;28;20044;-43
2024/01/01 11:16:26;;;;;;;4.95;2.30;;;;;;;7.57;100.00;99578.41;5078212;28;20044;-41
2024/01/01 11:18:56;;;;;;;4.88;2.33;;;;;;;7.65;100.00;99572.66;5079071;28;20052;-46
2024/01/01 11:21:29;;;;;;;5.32;2.58;;;;;;;7.62;100.00;99573.69;5076467;28;20394;-43
2024/01/01 11:24:01;;;;;;;6.07;2.58;;;;;;;7.56;100.00;99583.81;5078820;28;20130;-44
2024/01/01 11:26:34;;;;;;;6.13;2.70;;;;;;;7.57;100.00;99577.56;5076984;28;20044;-42
2024/01/01 11:29:07;;;;;;;5.07;2.63;;;;;;;7.69;100.00;99571.53;5078142;28;20043;-42